Airfield :
LOGIN :

Register | Disclaimer

   EN    FR    IT 

 










Legend :    VFR   Marginal VFR   IFR   Intensive IFR   Very Intensive IFR
Visi :
Ceiling :
>= 8 km
>= 3000ft
5 to 8 km
1000 to 3000 ft
1500m to 5 km
500 to 1000 ft
800 to 1500m
200 to 500 ft
< 800m
< 200 ft
Symbols :   Thunderstorms  Fog  Heavy snow  Heavy precipitations  Wind > 20 kt
SIGMETs :     Misc.  Thunderstorms  Icing  Turbulence  Mountain Waves  Volcanic Ashes






- Airport Elevation : 741 ft
- IATA code : PED


LKPD - Pardubice AB

CURRENT METAR :
  • 282230Z 33003KT 9999 BKN040 12/09 Q1026 RMK BLU

EXPIRED METARs :
  • 282200Z 31003KT CAVOK 11/09 Q1026 RMK BLU
  • 282130Z 30002KT CAVOK 11/09 Q1026 RMK BLU
  • 282100Z VRB02KT CAVOK 11/09 Q1026 RMK BLU
  • 282030Z 26002KT CAVOK 11/09 Q1026 NOSIG RMK BLU BLU
  • 282000Z 23003KT 9999 BKN045 12/09 Q1026 NOSIG RMK BLU BLU
  • 281930Z 24003KT 9999 BKN045 12/09 Q1026 NOSIG RMK BLU BLU

TAF COR TAF LKPD
Valid from the 28 at 18:00 until the 29 at 18:00 UTC


281700Z 2818/2918 34006KT 9999 BKN040
PROB30
TEMPO 2818/2820 7000 SHRA BKN030
TEMPO 2823/2908 SCT025
BECMG 2905/2907 03008KT
BECMG 2910/2912 CAVOK
TEMPO 2912/2917 03015KT



MET'MAP, your aeronautical weather chart ! - Copyright ORBIFLY December 2007 - Disclaimer

ORBIFLY MET'MAP TEAM :

Programming & Development : Alexandra Zaïnal
Concept & original design : Baudouin d'Aumeries
Assistance for programming : Marc-Olivier Méhu
Technical & hardware support : Manuel Goepfert

Contact : metmap@orbifly.com




SOURCES & CREDITS :

   NOAA